Time;durP1;ratioP1;P1;durP2;ratioP2;P2;SDS_P1;SDS_P2;PMS_P1;PMS_P2;Temp;Humidity;BMP_temperature;BMP_pressure;BME280_temperature;BME280_humidity;BME280_pressure;Samples;Min_cycle;Max_cycle;Signal;HPM_P1;HPM_P2
2022/02/22 00:00:18;;;;;;;0.50;0.40;;;3.00;1.40;;;3.34;100.00;95051.52;619208;222;31846;-73
2022/02/22 00:03:00;;;;;;;0.40;0.20;;;2.90;1.40;;;3.29;100.00;95054.95;647468;216;31562;-74
2022/02/22 00:05:45;;;;;;;0.40;0.30;;;2.90;1.40;;;3.29;100.00;95051.52;618469;226;31847;-75
2022/02/22 00:08:27;;;;;;;1.70;1.10;;;2.90;1.40;;;3.28;100.00;95046.31;620364;226;31961;-74
2022/02/22 00:11:11;;;;;;;1.20;0.70;;;2.90;1.40;;;3.18;100.00;95043.86;646842;212;31499;-74
2022/02/22 00:13:53;;;;;;;0.70;0.30;;;2.70;1.40;;;2.97;100.00;95049.73;646955;216;31546;-74
2022/02/22 00:16:35;;;;;;;2.05;0.60;;;2.50;1.40;;;2.84;100.00;95064.02;647793;216;31490;-75
2022/02/22 00:19:19;;;;;;;0.40;0.20;;;2.40;1.40;;;2.85;100.00;95052.56;647268;216;32129;-74
2022/02/22 00:22:01;;;;;;;0.90;0.60;;;2.50;1.40;;;2.77;100.00;95051.08;646481;216;31563;-74
2022/02/22 00:24:45;;;;;;;1.10;1.00;;;2.40;1.40;;;2.63;100.00;95053.41;646623;216;32257;-74
2022/02/22 00:27:29;;;;;;;0.40;0.20;;;2.20;1.40;;;2.54;100.00;95047.64;647235;216;31457;-74
2022/02/22 00:30:11;;;;;;;0.40;0.30;;;2.20;1.40;;;2.43;100.00;95049.16;646717;212;31502;-75
2022/02/22 00:32:56;;;;;;;1.00;0.40;;;2.00;1.40;;;2.44;100.00;95053.34;649745;216;31520;-73
2022/02/22 00:35:51;;;;;;;1.00;0.30;;;2.10;1.40;;;2.32;100.00;95049.95;647935;212;31610;-75
2022/02/22 00:38:36;;;;;;;0.80;0.70;;;2.00;1.40;;;2.37;100.00;95046.92;645182;216;42132;-75
2022/02/22 00:41:18;;;;;;;0.40;0.30;;;2.00;1.40;;;2.41;100.00;95056.13;646836;216;31515;-74
2022/02/22 00:43:59;;;;;;;0.40;0.20;;;2.10;1.40;;;2.46;100.00;95055.05;647374;216;31657;-75
2022/02/22 00:46:41;;;;;;;1.07;1.00;;;2.10;1.40;;;2.48;100.00;95059.02;618541;226;33667;-74
2022/02/22 00:49:23;;;;;;;0.40;0.20;;;2.10;1.40;;;2.43;100.00;95060.61;619453;222;31827;-73
2022/02/22 00:52:05;;;;;;;0.40;0.22;;;2.00;1.40;;;2.43;100.00;95066.81;647972;212;31629;-75
2022/02/22 00:54:47;;;;;;;0.40;0.40;;;2.10;1.40;;;2.54;100.00;95067.22;645727;216;31668;-75
2022/02/22 00:57:28;;;;;;;1.05;0.32;;;2.20;1.40;;;2.59;100.00;95079.38;647849;212;42780;-74
2022/02/22 01:00:11;;;;;;;0.55;0.55;;;2.20;1.40;;;2.69;100.00;95072.80;646836;216;31480;-74
2022/02/22 01:02:52;;;;;;;0.40;0.30;;;2.40;1.40;;;2.78;100.00;95083.25;647066;212;31900;-75
2022/02/22 01:05:37;;;;;;;0.40;0.20;;;2.40;1.40;;;2.86;100.00;95085.76;648537;216;31481;-73
2022/02/22 01:08:19;;;;;;;0.77;0.60;;;2.50;1.40;;;2.86;100.00;95089.19;647603;212;31459;-74
2022/02/22 01:11:03;;;;;;;0.40;0.20;;;2.50;1.40;;;2.95;100.00;95086.20;620245;226;31871;-73
2022/02/22 01:13:55;;;;;;;0.40;0.40;;;2.60;1.40;;;3.06;100.00;95083.72;619123;226;31981;-73
2022/02/22 01:16:37;;;;;;;0.43;0.40;;;2.70;1.40;;;3.12;100.00;95096.05;647662;212;31630;-74
2022/02/22 01:21:53;;;;;;;0.40;0.30;;;2.80;1.40;;;3.23;100.00;95089.60;647732;216;31551;-74
2022/02/22 01:24:35;;;;;;;0.40;0.30;;;2.90;1.40;;;3.24;100.00;95092.81;619382;222;33045;-74
2022/02/22 01:27:17;;;;;;;0.40;0.40;;;2.90;1.40;;;3.29;100.00;95088.05;647389;216;31577;-75
2022/02/22 01:29:58;;;;;;;0.50;0.35;;;2.90;1.40;;;3.28;100.00;95093.09;648155;216;31490;-74
2022/02/22 01:32:40;;;;;;;0.40;0.25;;;2.90;1.40;;;3.29;100.00;95096.41;646502;216;31516;-73
2022/02/22 01:35:51;;;;;;;1.00;0.40;;;3.00;1.40;;;3.35;100.00;95076.56;648110;216;31652;-74
2022/02/22 01:38:33;;;;;;;0.50;0.50;;;3.00;1.40;;;3.42;100.00;95092.58;647848;216;31496;-75
2022/02/22 01:41:16;;;;;;;0.50;0.30;;;3.10;1.40;;;3.40;100.00;95091.51;646756;216;31664;-73
2022/02/22 01:44:01;;;;;;;0.47;0.37;;;3.10;1.40;;;3.40;100.00;95098.53;646477;216;31537;-74
2022/02/22 01:46:43;;;;;;;0.40;0.30;;;3.00;1.40;;;3.44;100.00;95105.17;646942;216;31501;-75
2022/02/22 01:49:24;;;;;;;2.40;0.60;;;3.00;1.40;;;3.40;100.00;95094.41;648236;216;31549;-74
2022/02/22 01:52:06;;;;;;;0.40;0.30;;;3.00;1.40;;;3.47;100.00;95114.98;647837;212;31554;-74
2022/02/22 01:54:48;;;;;;;0.50;0.50;;;3.10;1.40;;;3.50;100.00;95107.16;619271;222;31899;-74
2022/02/22 01:57:30;;;;;;;0.40;0.30;;;3.10;1.40;;;3.56;100.00;95127.23;646929;212;31571;-74
2022/02/22 02:00:13;;;;;;;2.20;0.70;;;3.20;1.40;;;3.67;100.00;95129.16;647294;216;32279;-74
2022/02/22 02:02:55;;;;;;;0.50;0.30;;;3.30;1.40;;;3.52;100.00;95132.13;646391;212;31549;-75
2022/02/22 02:05:37;;;;;;;0.90;0.90;;;3.10;1.40;;;3.61;100.00;95134.03;647220;216;31527;-73
2022/02/22 02:08:18;;;;;;;2.60;0.80;;;3.30;1.40;;;3.69;100.00;95131.08;620865;226;31821;-75
2022/02/22 02:11:00;;;;;;;2.70;0.70;;;3.20;1.40;;;3.68;100.00;95128.45;645774;216;31637;-73
2022/02/22 02:13:45;;;;;;;0.40;0.20;;;3.20;1.40;;;3.69;100.00;95130.06;647733;216;31539;-75
2022/02/22 02:16:27;;;;;;;0.60;0.60;;;3.30;1.40;;;3.73;100.00;95151.59;646940;212;31518;-74
2022/02/22 02:19:09;;;;;;;0.60;0.30;;;3.30;1.40;;;3.75;100.00;95140.44;646958;216;31501;-74
2022/02/22 02:21:57;;;;;;;1.10;0.60;;;3.40;1.40;;;3.67;100.00;95146.14;647004;216;31541;-75
2022/02/22 02:24:39;;;;;;;1.30;0.37;;;3.30;1.40;;;3.72;100.00;95150.19;648487;216;31528;-74
2022/02/22 02:27:21;;;;;;;0.40;0.22;;;3.30;1.40;;;3.74;100.00;95156.25;645434;212;31523;-75
2022/02/22 02:30:05;;;;;;;0.60;0.50;;;3.30;1.40;;;3.67;100.00;95165.17;647516;216;31693;-75
2022/02/22 02:32:50;;;;;;;0.80;0.30;;;3.30;1.40;;;3.73;100.00;95172.06;646899;212;31515;-72
2022/02/22 02:35:51;;;;;;;1.30;1.20;;;3.30;1.40;;;3.70;100.00;95166.84;646589;216;31586;-75
2022/02/22 02:38:36;;;;;;;0.40;0.30;;;3.30;1.40;;;3.70;100.00;95162.88;647540;216;31729;-73
2022/02/22 02:41:18;;;;;;;0.40;0.30;;;3.20;1.40;;;3.61;100.00;95167.70;646356;212;33058;-74
2022/02/22 02:44:02;;;;;;;0.40;0.30;;;3.10;1.40;;;3.53;100.00;95173.56;646172;216;31577;-74
2022/02/22 02:46:43;;;;;;;0.40;0.40;;;3.00;1.40;;;3.48;100.00;95169.80;647352;216;31510;-74
2022/02/22 02:49:25;;;;;;;0.70;0.60;;;3.00;1.40;;;3.34;100.00;95175.92;646686;212;31523;-75
2022/02/22 02:52:07;;;;;;;0.40;0.40;;;2.90;1.40;;;3.35;100.00;95174.77;645959;212;32286;-74
2022/02/22 02:54:55;;;;;;;0.60;0.60;;;2.90;1.40;;;3.35;100.00;95174.98;647638;216;31493;-75
2022/02/22 02:57:38;;;;;;;0.50;0.50;;;3.00;1.40;;;3.44;100.00;95177.84;646419;212;31475;-74
2022/02/22 03:00:19;;;;;;;2.20;0.60;;;3.00;1.40;;;3.43;100.00;95186.20;620946;226;32239;-74
2022/02/22 03:03:06;;;;;;;3.00;0.52;;;3.00;1.40;;;3.48;100.00;95178.33;646750;212;31541;-75
2022/02/22 03:05:47;;;;;;;0.50;0.40;;;3.10;1.40;;;3.50;100.00;95190.28;618032;226;31906;-74
2022/02/22 03:08:29;;;;;;;0.50;0.40;;;3.10;1.40;;;3.48;100.00;95185.02;647077;216;31507;-77
2022/02/22 03:11:11;;;;;;;0.70;0.47;;;3.10;1.40;;;3.44;100.00;95186.25;648147;212;31545;-74
2022/02/22 03:13:52;;;;;;;0.40;0.32;;;3.00;1.40;;;3.47;100.00;95186.63;645730;216;32092;-73
2022/02/22 03:16:34;;;;;;;1.60;0.70;;;3.10;1.40;;;3.39;100.00;95193.80;619553;226;32273;-75
2022/02/22 03:19:16;;;;;;;0.50;0.50;;;3.00;1.40;;;3.46;100.00;95205.55;646884;212;31717;-73
2022/02/22 03:21:58;;;;;;;0.60;0.60;;;3.00;1.40;;;3.47;100.00;95214.13;620361;226;31982;-74
2022/02/22 03:24:40;;;;;;;0.50;0.50;;;3.10;1.40;;;3.49;100.00;95215.57;619931;226;32314;-74
2022/02/22 03:27:21;;;;;;;0.40;0.20;;;3.00;1.40;;;3.49;100.00;95232.02;648622;216;31568;-74
2022/02/22 03:30:07;;;;;;;0.55;0.45;;;3.00;1.40;;;3.50;100.00;95230.42;620375;222;31849;-74
2022/02/22 03:32:49;;;;;;;0.90;0.50;;;3.10;1.40;;;3.46;100.00;95236.20;647324;212;32152;-74
2022/02/22 03:35:51;;;;;;;3.50;0.40;;;3.00;1.40;;;3.43;100.00;95238.28;646150;216;31560;-75
2022/02/22 03:38:33;;;;;;;0.40;0.20;;;3.00;1.40;;;3.43;100.00;95251.68;646789;216;31518;-74
2022/02/22 03:41:15;;;;;;;0.60;0.50;;;3.00;1.40;;;3.32;100.00;95243.11;646354;216;31497;-75
2022/02/22 03:43:56;;;;;;;0.40;0.30;;;2.90;1.40;;;3.46;100.00;95255.59;645368;212;32103;-74
2022/02/22 03:46:39;;;;;;;0.40;0.20;;;3.00;1.40;;;3.50;100.00;95262.73;648704;216;31618;-74
2022/02/22 03:49:20;;;;;;;0.50;0.50;;;3.00;1.40;;;3.55;100.00;95271.62;646846;216;31502;-75
2022/02/22 03:52:01;;;;;;;0.50;0.30;;;3.10;1.40;;;3.61;100.00;95273.51;645633;212;31443;-74
2022/02/22 03:54:46;;;;;;;0.40;0.20;;;3.10;1.40;;;3.48;100.00;95296.28;647390;212;32692;-74
2022/02/22 03:57:28;;;;;;;0.40;0.20;;;3.00;1.40;;;3.45;100.00;95303.51;647343;216;31494;-73
2022/02/22 04:02:44;;;;;;;0.40;0.40;;;2.90;1.40;;;3.37;100.00;95307.06;646950;212;31498;-74
2022/02/22 04:05:26;;;;;;;0.43;0.43;;;2.90;1.40;;;3.40;100.00;95315.17;619260;222;32839;-75
2022/02/22 04:08:07;;;;;;;2.05;0.43;;;2.90;1.40;;;3.36;100.00;95316.88;619592;225;31920;-73
2022/02/22 04:10:49;;;;;;;0.40;0.30;;;2.80;1.40;;;3.29;100.00;95320.03;646146;216;31500;-75
2022/02/22 04:13:31;;;;;;;0.40;0.30;;;2.80;1.40;;;3.34;100.00;95321.98;646266;212;31560;-74
2022/02/22 04:16:12;;;;;;;2.25;0.55;;;2.90;1.40;;;3.37;100.00;95322.39;646640;216;32157;-75
2022/02/22 04:18:54;;;;;;;0.50;0.40;;;2.90;1.40;;;3.35;100.00;95323.94;619341;222;32016;-74
2022/02/22 04:21:36;;;;;;;0.40;0.30;;;2.90;1.40;;;3.36;100.00;95335.63;647749;212;31509;-73
2022/02/22 04:24:19;;;;;;;0.40;0.20;;;2.90;1.40;;;3.38;100.00;95348.44;646965;212;32130;-74
2022/02/22 04:27:01;;;;;;;0.70;0.50;;;2.90;1.40;;;3.29;100.00;95359.14;648386;212;31621;-74
2022/02/22 04:29:43;;;;;;;0.50;0.30;;;2.80;1.40;;;3.27;100.00;95363.74;646702;216;31683;-74
2022/02/22 04:32:25;;;;;;;0.40;0.28;;;2.90;1.40;;;3.22;100.00;95371.33;620732;226;31917;-74
2022/02/22 04:35:51;;;;;;;0.60;0.50;;;2.70;1.40;;;3.23;100.00;95386.06;648044;216;31540;-75
2022/02/22 04:38:33;;;;;;;1.10;0.40;;;2.80;1.40;;;3.24;100.00;95382.85;620309;222;31800;-74
2022/02/22 04:41:15;;;;;;;0.40;0.30;;;2.80;1.40;;;3.29;100.00;95395.47;647656;212;31504;-74
2022/02/22 04:43:57;;;;;;;0.50;0.40;;;2.90;1.40;;;3.32;100.00;95398.70;617862;226;31862;-74
2022/02/22 04:46:38;;;;;;;0.40;0.30;;;2.90;1.40;;;3.30;100.00;95387.17;647233;216;31584;-73
2022/02/22 04:49:20;;;;;;;0.60;0.40;;;2.90;1.40;;;3.30;100.00;95399.81;647026;216;31507;-73
2022/02/22 04:52:02;;;;;;;0.40;0.30;;;2.90;1.40;;;3.18;100.00;95391.07;647660;216;32810;-74
2022/02/22 04:54:44;;;;;;;5.80;1.10;;;2.70;1.40;;;3.21;100.00;95411.45;619867;226;31979;-74
2022/02/22 05:00:00;;;;;;;0.40;0.30;;;2.80;1.40;;;3.23;100.00;95408.19;647347;212;32084;-74
2022/02/22 05:02:41;;;;;;;0.60;0.40;;;2.80;1.40;;;3.23;100.00;95412.95;648005;212;32023;-74
2022/02/22 05:05:23;;;;;;;0.40;0.30;;;2.80;1.40;;;3.17;100.00;95409.65;646752;212;31490;-75
2022/02/22 05:08:05;;;;;;;7.10;0.80;;;2.70;1.40;;;3.24;100.00;95423.35;619989;226;31811;-74
2022/02/22 05:10:47;;;;;;;0.40;0.40;;;2.70;1.40;;;3.09;100.00;95430.03;646860;216;31802;-74
2022/02/22 05:13:28;;;;;;;0.40;0.30;;;2.60;1.40;;;3.02;100.00;95441.88;620101;222;31997;-75
2022/02/22 05:16:10;;;;;;;0.60;0.50;;;2.50;1.40;;;2.89;100.00;95449.68;646749;212;31521;-76
2022/02/22 05:18:55;;;;;;;3.20;1.40;;;2.30;1.40;;;2.65;100.00;95463.16;647562;216;31724;-76
2022/02/22 05:21:37;;;;;;;0.50;0.30;;;2.10;1.40;;;2.44;100.00;95466.31;619668;226;31865;-75
2022/02/22 05:24:19;;;;;;;0.40;0.28;;;1.80;1.40;;;1.98;100.00;95485.36;647417;212;31507;-76
2022/02/22 05:27:01;;;;;;;0.40;0.30;;;1.20;1.40;;;1.56;100.00;95488.73;619094;225;31903;-76
2022/02/22 05:29:42;;;;;;;0.40;0.30;;;0.80;1.40;;;1.26;100.00;95482.08;618821;222;42479;-75
2022/02/22 05:32:24;;;;;;;1.50;0.60;;;0.50;1.40;;;1.16;100.00;95471.67;647640;212;31566;-76
2022/02/22 05:35:51;;;;;;;0.40;0.30;;;0.50;1.40;;;1.09;100.00;95467.38;646278;216;31498;-77
2022/02/22 05:38:33;;;;;;;0.40;0.20;;;0.50;1.40;;;1.02;100.00;95465.68;648668;216;42411;-76
2022/02/22 05:41:17;;;;;;;1.30;0.60;;;0.50;1.40;;;1.04;100.00;95463.41;620630;225;31906;-77
2022/02/22 05:43:56;;;;;;;1.92;0.52;;;0.50;1.40;;;1.10;100.00;95477.16;646473;212;32250;-76
2022/02/22 05:46:38;;;;;;;4.80;0.60;;;0.60;1.40;;;1.22;100.00;95470.16;646164;216;31801;-76
2022/02/22 05:49:22;;;;;;;0.40;0.20;;;0.70;1.40;;;1.25;100.00;95466.36;646747;216;31508;-77
2022/02/22 05:52:01;;;;;;;0.40;0.20;;;0.70;1.40;;;1.31;100.00;95464.34;646730;212;31584;-75
2022/02/22 05:54:43;;;;;;;0.40;0.30;;;0.80;1.40;;;1.41;100.00;95466.23;620600;226;31815;-76
2022/02/22 05:57:25;;;;;;;0.40;0.20;;;1.00;1.40;;;1.42;100.00;95471.75;647602;213;31578;-75
2022/02/22 06:00:10;;;;;;;0.60;0.60;;;1.10;1.40;;;1.43;100.00;95479.78;646302;216;31537;-74
2022/02/22 06:02:52;;;;;;;0.40;0.30;;;1.10;1.40;;;1.40;100.00;95478.72;646252;212;31443;-75
2022/02/22 06:05:37;;;;;;;0.40;0.20;;;1.10;1.40;;;1.45;100.00;95491.66;646266;212;31571;-75
2022/02/22 06:08:18;;;;;;;0.40;0.20;;;1.20;1.40;;;1.44;100.00;95499.18;647543;216;31484;-75
2022/02/22 06:11:00;;;;;;;0.40;0.30;;;1.10;1.40;;;1.43;100.00;95511.03;647956;212;31501;-75
2022/02/22 06:13:42;;;;;;;0.40;0.30;;;1.10;1.40;;;1.46;100.00;95515.30;631339;221;31637;-75
2022/02/22 06:16:23;;;;;;;1.10;0.80;;;1.20;1.40;;;1.51;100.00;95522.55;619405;225;31839;-75
2022/02/22 06:19:05;;;;;;;0.40;0.30;;;1.30;1.40;;;1.50;100.00;95531.66;647192;216;31628;-75
2022/02/22 06:21:47;;;;;;;0.90;0.60;;;1.30;1.40;;;1.53;100.00;95535.44;619478;222;42565;-75
2022/02/22 06:24:29;;;;;;;0.40;0.30;;;1.30;1.40;;;1.47;100.00;95549.12;646956;216;32114;-76
2022/02/22 06:27:10;;;;;;;0.40;0.20;;;1.20;1.40;;;1.45;100.00;95556.89;647131;212;31771;-76
2022/02/22 06:29:52;;;;;;;0.40;0.30;;;1.20;1.40;;;1.56;100.00;95549.12;619425;226;42627;-76
2022/02/22 06:32:37;;;;;;;0.40;0.20;;;1.40;1.40;;;1.63;100.00;95547.94;631810;217;43663;-76
2022/02/22 06:35:52;;;;;;;1.80;0.60;;;1.50;1.40;;;1.71;100.00;95560.89;645723;212;31472;-76
2022/02/22 06:38:33;;;;;;;0.40;0.40;;;1.50;1.40;;;1.88;100.00;95568.75;647548;212;31522;-76
2022/02/22 06:41:15;;;;;;;0.77;0.75;;;1.70;1.40;;;1.90;100.00;95565.19;646887;212;31607;-76
2022/02/22 06:43:57;;;;;;;0.50;0.40;;;1.70;1.40;;;1.91;100.00;95573.39;647725;216;42060;-79
2022/02/22 06:46:43;;;;;;;0.40;0.20;;;1.70;1.40;;;1.90;100.00;95581.49;647511;215;42234;-77
2022/02/22 06:49:25;;;;;;;0.50;0.40;;;1.60;1.40;;;1.90;100.00;95585.30;646642;212;42181;-80
2022/02/22 06:52:13;;;;;;;0.55;0.40;;;1.60;1.40;;;1.88;100.00;95592.96;647022;212;42449;-78
2022/02/22 06:55:01;;;;;;;0.40;0.30;;;1.60;1.40;;;1.80;100.00;95597.64;619334;222;43106;-80
2022/02/22 07:00:48;;;;;;;0.50;0.50;;;1.50;1.40;;;1.91;100.00;95603.64;647862;216;31943;-79
2022/02/22 07:03:26;;;;;;;0.50;0.40;;;1.60;1.40;;;1.93;100.00;95612.50;646886;216;31958;-81
2022/02/22 07:06:08;;;;;;;9.70;0.40;;;1.70;1.40;;;2.00;100.00;95609.38;644265;212;31843;-80
2022/02/22 07:08:49;;;;;;;0.90;0.50;;;1.90;1.40;;;1.99;100.00;95612.52;646430;216;32082;-80
2022/02/22 07:11:37;;;;;;;0.40;0.20;;;1.80;1.40;;;1.98;100.00;95624.38;646853;212;31473;-75
2022/02/22 07:14:19;;;;;;;0.60;0.60;;;1.80;1.40;;;2.09;100.00;95626.80;647424;212;32587;-76
2022/02/22 07:17:01;;;;;;;0.40;0.40;;;2.00;1.40;;;2.15;100.00;95632.48;619595;222;42660;-76
2022/02/22 07:19:43;;;;;;;2.60;0.60;;;2.10;1.40;;;2.30;100.00;95643.89;646884;216;31520;-78
2022/02/22 07:22:28;;;;;;;1.00;0.90;;;2.30;1.40;;;2.61;100.00;95657.25;645723;212;42124;-76
2022/02/22 07:25:10;;;;;;;1.30;0.70;;;2.60;1.40;;;2.71;100.00;95655.87;646621;216;31569;-76
2022/02/22 07:27:52;;;;;;;1.70;1.00;;;2.60;1.40;;;2.69;100.00;95670.03;645969;216;31621;-75
2022/02/22 07:30:33;;;;;;;0.70;0.70;;;2.60;1.40;;;2.75;100.00;95680.16;645873;216;31533;-77
2022/02/22 07:35:52;;;;;;;0.77;0.77;;;2.60;1.40;;;2.68;100.00;95679.27;645579;216;31562;-75
2022/02/22 07:38:33;;;;;;;0.40;0.40;;;2.50;1.40;;;2.65;100.00;95690.59;646214;216;32318;-73
2022/02/22 07:41:22;;;;;;;1.30;0.40;;;2.50;1.40;;;2.65;100.00;95694.37;646481;216;31508;-74
2022/02/22 07:44:00;;;;;;;0.50;0.40;;;2.40;1.40;;;2.56;100.00;95698.26;647051;216;32444;-77
2022/02/22 07:46:41;;;;;;;3.00;0.93;;;2.30;1.40;;;2.57;100.00;95704.64;646299;212;31608;-76
2022/02/22 07:49:23;;;;;;;0.60;0.40;;;2.40;1.40;;;2.68;100.00;95718.08;646538;216;31506;-74
2022/02/22 07:52:05;;;;;;;0.60;0.40;;;2.60;1.40;;;2.83;100.00;95712.63;647113;212;31470;-74
2022/02/22 07:54:47;;;;;;;0.40;0.32;;;2.70;1.40;;;2.93;100.00;95728.06;645577;216;31471;-74
2022/02/22 07:57:29;;;;;;;0.40;0.20;;;2.80;1.40;;;2.97;100.00;95729.34;619092;226;32025;-74
2022/02/22 08:00:14;;;;;;;0.60;0.60;;;2.70;1.40;;;2.81;100.00;95731.18;630946;222;31725;-74
2022/02/22 08:02:56;;;;;;;0.80;0.30;;;2.60;1.40;;;2.73;100.00;95730.34;646517;216;32912;-77
2022/02/22 08:05:37;;;;;;;0.40;0.40;;;2.50;1.40;;;2.95;100.00;95730.55;646307;216;31686;-75
2022/02/22 08:08:19;;;;;;;0.50;0.50;;;2.80;1.40;;;3.08;100.00;95736.55;646210;212;31511;-75
2022/02/22 08:11:01;;;;;;;3.20;0.40;;;2.90;1.40;;;3.17;100.00;95737.81;645495;216;31567;-75
2022/02/22 08:13:43;;;;;;;0.50;0.40;;;3.00;1.40;;;3.28;100.00;95742.66;646934;212;32123;-74
2022/02/22 08:19:01;;;;;;;1.00;0.60;;;3.20;1.40;;;3.62;100.00;95759.95;645948;212;31551;-75
2022/02/22 08:21:40;;;;;;;3.30;0.50;;;3.40;1.40;;;3.69;100.00;95765.59;647116;216;32144;-77
2022/02/22 08:24:22;;;;;;;0.50;0.30;;;3.50;1.40;;;3.70;100.00;95770.53;646142;212;31766;-77
2022/02/22 08:27:04;;;;;;;0.45;0.28;;;3.40;1.40;;;3.55;100.00;95759.61;646410;216;31520;-77
2022/02/22 08:29:46;;;;;;;0.40;0.30;;;3.30;1.40;;;3.64;100.00;95762.59;646697;216;42087;-76
2022/02/22 08:32:28;;;;;;;0.40;0.20;;;3.40;1.40;;;3.81;100.00;95772.55;646638;216;31487;-75
2022/02/22 08:35:51;;;;;;;;;;;3.70;1.40;;;4.02;100.00;95771.32;621603;224;24922;-77
2022/02/22 08:38:32;;;;;;;;;;;4.00;1.40;;;4.40;100.00;95775.38;621968;224;24793;-75
2022/02/22 08:41:14;;;;;;;;;;;4.20;1.40;;;4.42;100.00;95782.09;651717;216;25177;-76
2022/02/22 08:43:57;;;;;;;;;;;4.00;1.40;;;4.36;100.00;95780.72;651827;216;24843;-76
2022/02/22 08:46:43;;;;;;;;;;;3.80;1.40;;;4.08;100.00;95780.70;654972;216;24931;-80
2022/02/22 08:49:30;;;;;;;;;;;3.70;1.40;;;3.97;100.00;95796.05;652469;216;24829;-76
2022/02/22 08:52:11;;;;;;;;;;;3.50;1.40;;;3.69;100.00;95796.00;652520;212;24834;-75
2022/02/22 08:54:53;;;;;;;;;;;3.30;1.40;;;3.63;100.00;95795.50;652877;216;24870;-75
2022/02/22 08:57:34;;;;;;;;;;;3.30;1.40;;;3.78;100.00;95800.14;647777;216;24949;-75
2022/02/22 09:00:16;;;;;;;;;;;3.50;1.40;;;4.02;100.00;95800.44;653220;216;25761;-78
2022/02/22 09:03:00;;;;;;;;;;;3.60;1.40;;;4.24;100.00;95799.38;652708;216;24861;-75
2022/02/22 09:05:42;;;;;;;;;;;4.00;1.40;;;4.47;100.00;95810.88;653273;216;24781;-75
2022/02/22 09:08:26;;;;;;;;;;;3.90;1.40;;;4.04;100.00;95820.58;641856;216;24851;-75
2022/02/22 09:11:13;;;;;;;;;;;3.40;1.40;;;3.86;100.00;95815.56;656015;212;24819;-79
2022/02/22 09:13:55;;;;;;;;;;;3.10;1.40;;;3.53;100.00;95831.55;653682;216;24921;-80
2022/02/22 09:16:42;;;;;;;;;;;2.80;1.40;;;3.22;100.00;95822.80;653753;216;25332;-75
2022/02/22 09:19:30;;;;;;;;;;;2.60;1.40;;;3.19;100.00;95835.88;654154;212;24925;-80
2022/02/22 09:22:17;;;;;;;;;;;2.70;1.40;;;3.14;100.00;95835.42;651873;216;24826;-75
2022/02/22 09:24:59;;;;;;;;;;;3.00;1.40;;;4.18;100.00;95844.35;653578;212;24830;-75
2022/02/22 09:27:47;;;;;;;;;;;4.90;1.40;;;4.46;100.00;95846.42;653380;216;24834;-79
2022/02/22 09:30:37;;;;;;;;;;;3.80;1.40;;;4.16;100.00;95855.55;649157;215;24747;-76
2022/02/22 09:35:52;;;;;;;0.70;0.52;;;3.50;1.40;;;3.95;100.00;95865.41;620853;222;31833;-78
2022/02/22 09:38:34;;;;;;;1.10;0.70;;;3.50;1.40;;;3.97;100.00;95865.95;646690;216;31520;-79
2022/02/22 09:41:22;;;;;;;0.73;0.68;;;3.50;1.40;;;4.06;100.00;95869.26;646420;216;32173;-76
2022/02/22 09:44:10;;;;;;;1.80;0.80;;;3.60;1.40;;;4.24;100.00;95872.26;646766;216;31571;-78
2022/02/22 09:46:58;;;;;;;1.70;0.60;;;3.80;1.40;;;4.35;100.00;95872.02;647041;216;31502;-76
2022/02/22 09:49:41;;;;;;;0.40;0.30;;;4.00;1.40;;;4.50;100.00;95870.77;648516;216;31747;-79
2022/02/22 09:52:23;;;;;;;0.50;0.50;;;4.10;1.40;;;4.97;100.00;95875.42;647578;216;31440;-78
2022/02/22 09:55:07;;;;;;;0.57;0.57;;;5.00;1.40;;;5.17;100.00;95880.80;646827;216;31624;-78
2022/02/22 09:57:54;;;;;;;0.60;0.60;;;4.60;1.40;;;4.86;100.00;95884.32;648315;216;31540;-79
2022/02/22 10:00:37;;;;;;;2.20;0.50;;;4.20;1.40;;;4.73;100.00;95882.64;647720;212;31861;-77
2022/02/22 10:03:25;;;;;;;2.50;0.60;;;4.40;1.40;;;7.49;100.00;95890.72;647667;212;31520;-78
2022/02/22 10:06:12;;;;;;;1.30;1.20;;;9.70;1.40;;;8.99;98.51;95883.58;647515;212;31525;-76
2022/02/22 10:08:54;;;;;;;1.10;0.50;;;8.70;1.40;;;7.69;95.65;95906.28;648228;216;31509;-79
2022/02/22 10:11:47;;;;;;;2.17;0.50;;;6.70;1.40;;;6.96;100.00;95895.95;648806;212;31557;-77
2022/02/22 10:14:29;;;;;;;3.30;0.70;;;5.90;1.40;;;6.58;100.00;95894.45;647102;216;31579;-77
2022/02/22 10:17:11;;;;;;;1.90;0.60;;;5.70;1.40;;;6.96;100.00;95899.14;647872;216;31567;-80
2022/02/22 10:20:01;;;;;;;1.90;0.50;;;6.20;1.40;;;8.17;100.00;95881.45;643213;216;31545;-77
2022/02/22 10:22:51;;;;;;;0.60;0.40;;;9.20;1.40;;;9.30;92.44;95881.35;647514;212;31753;-79
2022/02/22 10:28:16;;;;;;;0.50;0.40;;;7.10;1.40;;;7.03;100.00;95904.41;648203;216;31492;-78
2022/02/22 10:30:58;;;;;;;1.30;0.70;;;5.60;1.40;;;6.08;100.00;95908.64;646728;212;42106;-77
2022/02/22 10:36:04;;;;;;;0.40;0.20;;;6.30;1.40;;;8.14;95.74;95894.97;646772;212;31475;-78
2022/02/22 10:38:45;;;;;;;1.90;0.50;;;7.60;1.40;;;7.67;100.00;95898.30;647799;212;31567;-79
2022/02/22 10:41:27;;;;;;;1.50;0.50;;;7.10;1.40;;;9.71;89.29;95892.08;648234;212;33436;-78
2022/02/22 10:44:09;;;;;;;0.50;0.50;;;10.50;1.40;;;10.90;80.70;95889.45;646254;216;31486;-79
2022/02/22 10:46:50;;;;;;;1.80;0.40;;;9.10;1.40;;;8.23;86.80;95901.77;618935;222;32101;-79
2022/02/22 10:49:33;;;;;;;0.45;0.30;;;6.50;1.40;;;8.73;90.41;95895.42;647617;212;31579;-79
2022/02/22 10:54:55;;;;;;;2.80;0.70;;;7.40;1.40;;;10.23;86.55;95904.93;646745;216;31573;-79
2022/02/22 10:57:39;;;;;;;1.90;0.40;;;9.60;1.40;;;8.50;86.81;95902.20;621080;226;42461;-75
2022/02/22 11:00:20;;;;;;;1.87;0.50;;;7.00;1.40;;;8.23;95.18;95887.50;646641;216;42141;-75
2022/02/22 11:03:04;;;;;;;0.47;0.40;;;8.00;1.40;;;10.46;85.34;95894.94;641981;217;32808;-79
2022/02/22 11:05:47;;;;;;;1.70;0.60;;;11.20;1.40;;;12.21;73.07;95877.09;645669;212;32839;-77
2022/02/22 11:08:29;;;;;;;0.80;0.50;;;11.50;1.40;;;9.46;75.80;95870.64;620201;226;31944;-77
2022/02/22 11:11:11;;;;;;;1.10;0.50;;;7.70;1.40;;;8.43;81.93;95877.50;646960;216;31469;-79
2022/02/22 11:14:00;;;;;;;0.80;0.40;;;6.70;1.40;;;7.62;85.92;95890.39;618515;226;33182;-76
2022/02/22 11:16:46;;;;;;;1.90;0.60;;;6.60;1.40;;;7.77;89.68;95889.09;645790;216;42700;-75
2022/02/22 11:19:37;;;;;;;0.55;0.30;;;7.00;1.40;;;7.99;85.95;95885.46;642757;219;31561;-80
2022/02/22 11:22:23;;;;;;;0.70;0.30;;;7.50;1.40;;;8.89;79.82;95884.63;647922;216;31490;-78
2022/02/22 11:25:04;;;;;;;1.00;0.90;;;9.80;1.40;;;8.16;79.33;95890.16;619825;226;31846;-74
2022/02/22 11:27:46;;;;;;;0.40;0.40;;;7.10;1.40;;;7.68;85.23;95899.54;645049;212;31545;-76
2022/02/22 11:30:27;;;;;;;0.50;0.40;;;7.60;1.40;;;7.80;85.58;95896.91;644639;212;31511;-78
2022/02/22 11:35:56;;;;;;;2.00;0.70;;;6.90;1.40;;;9.96;79.28;95877.99;621239;222;31867;-79
2022/02/22 11:38:43;;;;;;;0.70;0.60;;;10.50;1.40;;;8.79;77.03;95873.12;618364;226;31817;-75
2022/02/22 11:41:30;;;;;;;0.60;0.37;;;7.90;1.40;;;8.04;80.76;95872.40;618062;226;31887;-79
2022/02/22 11:44:19;;;;;;;1.70;0.40;;;6.90;1.40;;;7.38;88.11;95878.31;617756;222;32425;-76
2022/02/22 11:47:06;;;;;;;0.80;0.32;;;6.30;1.40;;;7.03;90.20;95879.02;642202;215;31558;-79
2022/02/22 11:49:56;;;;;;;1.20;0.40;;;6.10;1.40;;;6.59;94.75;95892.45;649970;216;31511;-76
2022/02/22 11:52:37;;;;;;;0.70;0.70;;;5.80;1.40;;;6.33;100.00;95887.81;634877;217;32065;-76
2022/02/22 11:55:27;;;;;;;0.40;0.30;;;5.70;1.40;;;5.89;100.00;95894.42;648487;212;42188;-79
2022/02/22 11:58:12;;;;;;;1.33;0.65;;;5.30;1.40;;;6.19;100.00;95891.74;619027;222;31872;-79
2022/02/22 12:01:04;;;;;;;0.40;0.30;;;6.50;1.40;;;8.36;100.00;95866.92;646159;213;31717;-76
2022/02/22 12:03:49;;;;;;;0.40;0.20;;;9.00;1.40;;;9.38;100.00;95866.11;619884;226;43184;-79
2022/02/22 12:06:30;;;;;;;0.80;0.40;;;9.60;1.40;;;10.10;100.00;95868.20;646587;216;31505;-76
2022/02/22 12:09:13;;;;;;;2.17;0.53;;;9.80;1.40;;;10.90;98.00;95847.14;621071;222;32029;-79
2022/02/22 12:12:05;;;;;;;0.60;0.50;;;10.70;1.40;;;11.79;87.55;95837.46;645732;212;31546;-77
2022/02/22 12:14:54;;;;;;;1.50;0.63;;;10.60;1.40;;;11.10;86.32;95839.23;620785;223;42524;-79
2022/02/22 12:20:10;;;;;;;2.20;0.40;;;9.80;1.40;;;10.86;85.87;95838.53;632222;222;42913;-77